Time;durP1;ratioP1;P1;durP2;ratioP2;P2;SDS_P1;SDS_P2;PMS_P1;PMS_P2;Temp;Humidity;BMP_temperature;BMP_pressure;BME280_temperature;BME280_humidity;BME280_pressure;Samples;Min_cycle;Max_cycle;Signal;HPM_P1;HPM_P2
2021/09/17 00:01:11;;;;;;;;;;;12.00;99.90;;;;;;5112756;28;20436;-73
2021/09/17 00:03:39;;;;;;;;;;;11.90;99.90;;;;;;5112635;28;20393;-73
2021/09/17 00:06:12;;;;;;;;;;;11.90;99.90;;;;;;5077898;28;20336;-72
2021/09/17 00:08:39;;;;;;;;;;;11.90;99.90;;;;;;5094480;28;20417;-73
2021/09/17 00:11:13;;;;;;;;;;;12.00;99.90;;;;;;5095749;28;19981;-73
2021/09/17 00:13:41;;;;;;;;;;;12.00;99.90;;;;;;5077448;28;20417;-73
2021/09/17 00:16:12;;;;;;;;;;;12.00;99.90;;;;;;5093857;28;20034;-73
2021/09/17 00:18:46;;;;;;;;;;;11.90;99.90;;;;;;5095200;28;19971;-73
2021/09/17 00:21:21;;;;;;;;;;;11.90;99.90;;;;;;5094319;28;19924;-73
2021/09/17 00:23:57;;;;;;;;;;;11.80;99.90;;;;;;5093947;28;19961;-73
2021/09/17 00:26:27;;;;;;;;;;;11.80;99.90;;;;;;5077476;28;19924;-73
2021/09/17 00:28:55;;;;;;;;;;;11.80;99.90;;;;;;5112440;28;19923;-73
2021/09/17 00:31:27;;;;;;;;;;;11.70;99.90;;;;;;5112504;28;20019;-73
2021/09/17 00:33:53;;;;;;;;;;;11.80;99.90;;;;;;5077384;28;20334;-73
2021/09/17 00:36:25;;;;;;;;;;;11.80;99.90;;;;;;5077710;28;20313;-74
2021/09/17 00:38:57;;;;;;;;;;;11.80;99.90;;;;;;5077920;28;20027;-73
2021/09/17 00:41:25;;;;;;;;;;;11.70;99.90;;;;;;5094474;28;19923;-72
2021/09/17 00:43:56;;;;;;;;;;;11.70;99.90;;;;;;5093712;28;20022;-73
2021/09/17 00:46:23;;;;;;;;;;;11.70;99.90;;;;;;5093597;28;20421;-72
2021/09/17 00:48:54;;;;;;;;;;;11.50;99.90;;;;;;5093540;28;20437;-72
2021/09/17 00:51:32;;;;;;;;;;;11.50;99.90;;;;;;5077790;28;19981;-73
2021/09/17 00:54:04;;;;;;;;;;;11.50;99.90;;;;;;5112075;28;19977;-73
2021/09/17 00:56:33;;;;;;;;;;;11.50;99.90;;;;;;5094494;28;20026;-72
2021/09/17 00:59:00;;;;;;;;;;;11.50;99.90;;;;;;5111672;28;19963;-73
2021/09/17 01:01:28;;;;;;;;;;;11.50;99.90;;;;;;5111202;28;19981;-73
2021/09/17 01:04:01;;;;;;;;;;;11.50;99.90;;;;;;5111521;28;19946;-73
2021/09/17 01:06:30;;;;;;;;;;;11.60;99.90;;;;;;5111300;28;20022;-72
2021/09/17 01:09:05;;;;;;;;;;;11.60;99.90;;;;;;5111499;28;19927;-73
2021/09/17 01:11:40;;;;;;;;;;;11.60;99.90;;;;;;5092997;28;20030;-73
2021/09/17 01:14:12;;;;;;;;;;;11.60;99.90;;;;;;5110901;28;20343;-73
2021/09/17 01:16:44;;;;;;;;;;;11.50;99.90;;;;;;5094066;28;19947;-73
2021/09/17 01:19:11;;;;;;;;;;;11.40;99.90;;;;;;5111365;28;20015;-73
2021/09/17 01:21:42;;;;;;;;;;;11.30;99.90;;;;;;5077207;28;19928;-73
2021/09/17 01:24:15;;;;;;;;;;;11.30;99.90;;;;;;5092733;28;20289;-73
2021/09/17 01:26:49;;;;;;;;;;;11.20;99.90;;;;;;5111084;28;19924;-73
2021/09/17 01:29:21;;;;;;;;;;;11.20;99.90;;;;;;5093688;28;20014;-72
2021/09/17 01:31:52;;;;;;;;;;;11.30;99.90;;;;;;5094182;28;19993;-73
2021/09/17 01:34:25;;;;;;;;;;;11.20;99.90;;;;;;5092910;28;19924;-73
2021/09/17 01:36:59;;;;;;;;;;;11.10;99.90;;;;;;5077949;28;20398;-73
2021/09/17 01:39:26;;;;;;;;;;;11.00;99.90;;;;;;5111519;28;20014;-73
2021/09/17 01:41:53;;;;;;;;;;;11.00;99.90;;;;;;5076973;28;19934;-72
2021/09/17 01:44:26;;;;;;;;;;;11.00;99.90;;;;;;5075624;28;19930;-72
2021/09/17 01:46:59;;;;;;;;;;;11.00;99.90;;;;;;5111030;28;19930;-73
2021/09/17 01:49:26;;;;;;;;;;;11.00;99.90;;;;;;5110898;28;20018;-73
2021/09/17 01:51:53;;;;;;;;;;;11.00;99.90;;;;;;5110803;28;20394;-73
2021/09/17 01:54:20;;;;;;;;;;;11.00;99.90;;;;;;5092552;28;19928;-73
2021/09/17 01:56:47;;;;;;;;;;;11.00;99.90;;;;;;5092978;28;19959;-73
2021/09/17 01:59:19;;;;;;;;;;;11.00;99.90;;;;;;5094459;28;19927;-73
2021/09/17 02:01:51;;;;;;;;;;;11.00;99.90;;;;;;5096936;28;19931;-73
2021/09/17 02:04:19;;;;;;;;;;;11.00;99.90;;;;;;5115003;28;20382;-73
2021/09/17 02:06:52;;;;;;;;;;;11.10;99.90;;;;;;5097856;28;20341;-73
2021/09/17 02:09:24;;;;;;;;;;;11.20;99.90;;;;;;5080283;28;19924;-74
2021/09/17 02:11:58;;;;;;;;;;;11.20;99.90;;;;;;5078926;28;19985;-77
2021/09/17 02:14:29;;;;;;;;;;;11.20;99.90;;;;;;5093533;28;19931;-73
2021/09/17 02:16:56;;;;;;;;;;;11.20;99.90;;;;;;5088378;28;19947;-73
2021/09/17 02:19:23;;;;;;;;;;;11.20;99.90;;;;;;5076636;28;20346;-73
2021/09/17 02:21:56;;;;;;;;;;;11.20;99.90;;;;;;5109464;27;20390;-72
2021/09/17 02:24:28;;;;;;;;;;;11.20;99.90;;;;;;5090194;27;20369;-72
2021/09/17 02:26:56;;;;;;;;;;;11.10;99.90;;;;;;5098268;28;20313;-73
2021/09/17 02:29:28;;;;;;;;;;;11.10;99.90;;;;;;5079951;28;19930;-74
2021/09/17 02:31:57;;;;;;;;;;;11.00;99.90;;;;;;5096007;28;19973;-72
2021/09/17 02:34:23;;;;;;;;;;;10.90;99.90;;;;;;5077360;28;20023;-73
2021/09/17 02:36:55;;;;;;;;;;;11.00;99.90;;;;;;5114537;28;19924;-73
2021/09/17 02:39:22;;;;;;;;;;;10.90;99.90;;;;;;5095831;28;20396;-72
2021/09/17 02:41:53;;;;;;;;;;;11.00;99.90;;;;;;5080064;28;19971;-73
2021/09/17 02:44:22;;;;;;;;;;;11.00;99.90;;;;;;5113796;28;20398;-73
2021/09/17 02:46:58;;;;;;;;;;;10.90;99.90;;;;;;5097706;28;19924;-73
2021/09/17 02:49:37;;;;;;;;;;;10.90;99.90;;;;;;5088040;28;19924;-73
2021/09/17 02:52:09;;;;;;;;;;;10.80;99.90;;;;;;5095509;28;19930;-73
2021/09/17 02:54:36;;;;;;;;;;;10.70;99.90;;;;;;5095254;28;20378;-73
2021/09/17 02:57:10;;;;;;;;;;;10.70;99.90;;;;;;5114413;28;19924;-73
2021/09/17 02:59:37;;;;;;;;;;;10.70;99.90;;;;;;5095735;28;19931;-73
2021/09/17 03:02:08;;;;;;;;;;;10.60;99.90;;;;;;5077808;28;19924;-73
2021/09/17 03:04:36;;;;;;;;;;;10.60;99.90;;;;;;5078834;28;19928;-73
2021/09/17 03:07:08;;;;;;;;;;;10.50;99.90;;;;;;5113991;28;20394;-74
2021/09/17 03:09:41;;;;;;;;;;;10.60;99.90;;;;;;5079689;28;19923;-73
2021/09/17 03:12:17;;;;;;;;;;;10.50;99.90;;;;;;5113483;28;19928;-73
2021/09/17 03:14:48;;;;;;;;;;;10.50;99.90;;;;;;5095030;28;19924;-72
2021/09/17 03:17:15;;;;;;;;;;;10.60;99.90;;;;;;5096509;28;19959;-72
2021/09/17 03:19:42;;;;;;;;;;;10.70;99.90;;;;;;5096710;28;19982;-72
2021/09/17 03:22:13;;;;;;;;;;;10.70;99.90;;;;;;5080055;28;19930;-72
2021/09/17 03:24:46;;;;;;;;;;;10.90;99.90;;;;;;5079240;28;19974;-72
2021/09/17 03:27:12;;;;;;;;;;;10.90;99.90;;;;;;5095586;28;19924;-72
2021/09/17 03:29:44;;;;;;;;;;;11.00;99.90;;;;;;5114423;28;20010;-72
2021/09/17 03:32:11;;;;;;;;;;;11.10;99.90;;;;;;5096232;28;19951;-72
2021/09/17 03:34:38;;;;;;;;;;;11.20;99.90;;;;;;5078907;28;19954;-72
2021/09/17 03:37:09;;;;;;;;;;;11.20;99.90;;;;;;5096384;28;19923;-72
2021/09/17 03:39:36;;;;;;;;;;;11.30;99.90;;;;;;5095611;28;20010;-72
2021/09/17 03:42:03;;;;;;;;;;;11.40;99.90;;;;;;5095590;28;19927;-72
2021/09/17 03:44:29;;;;;;;;;;;11.50;99.90;;;;;;5095615;28;19923;-72
2021/09/17 03:47:01;;;;;;;;;;;11.50;99.90;;;;;;5097187;28;19930;-72
2021/09/17 03:49:33;;;;;;;;;;;11.50;99.90;;;;;;5079168;28;19924;-72
2021/09/17 03:52:00;;;;;;;;;;;11.50;99.90;;;;;;5095173;28;19970;-72
2021/09/17 03:54:31;;;;;;;;;;;11.50;99.90;;;;;;5112942;28;19924;-72
2021/09/17 03:57:01;;;;;;;;;;;11.40;99.90;;;;;;5094901;28;19963;-72
2021/09/17 03:59:33;;;;;;;;;;;11.30;99.90;;;;;;5113703;28;20018;-72
2021/09/17 04:02:04;;;;;;;;;;;11.30;99.90;;;;;;5095421;28;20409;-72
2021/09/17 04:04:36;;;;;;;;;;;11.30;99.90;;;;;;5094596;28;20030;-72
2021/09/17 04:07:03;;;;;;;;;;;11.30;99.90;;;;;;5112628;28;19973;-73
2021/09/17 04:09:30;;;;;;;;;;;11.20;99.90;;;;;;5077233;28;20350;-76
2021/09/17 04:11:56;;;;;;;;;;;11.20;99.90;;;;;;5113195;28;20053;-72
2021/09/17 04:14:28;;;;;;;;;;;11.20;99.90;;;;;;5101906;28;19960;-72
2021/09/17 04:16:55;;;;;;;;;;;11.20;99.90;;;;;;5078184;28;19963;-72
2021/09/17 04:19:26;;;;;;;;;;;11.20;99.90;;;;;;5094829;28;19924;-72
2021/09/17 04:21:53;;;;;;;;;;;11.20;99.90;;;;;;5112525;28;20014;-72
2021/09/17 04:24:20;;;;;;;;;;;11.20;99.90;;;;;;5093751;28;20006;-72
2021/09/17 04:26:46;;;;;;;;;;;11.30;99.90;;;;;;5112145;28;20022;-72
2021/09/17 04:29:13;;;;;;;;;;;11.30;99.90;;;;;;5093965;28;19932;-72
2021/09/17 04:31:44;;;;;;;;;;;11.30;99.90;;;;;;5111586;28;19924;-72
2021/09/17 04:34:16;;;;;;;;;;;11.30;99.90;;;;;;5094029;28;19970;-72
2021/09/17 04:36:43;;;;;;;;;;;11.40;99.90;;;;;;5094475;28;19934;-72
2021/09/17 04:39:09;;;;;;;;;;;11.40;99.90;;;;;;5094512;28;19978;-72
2021/09/17 04:41:36;;;;;;;;;;;11.40;99.90;;;;;;5094779;28;19930;-72
2021/09/17 04:44:08;;;;;;;;;;;11.50;99.90;;;;;;5095309;28;20027;-71
2021/09/17 04:46:34;;;;;;;;;;;11.50;99.90;;;;;;5094305;28;19928;-72
2021/09/17 04:49:01;;;;;;;;;;;11.50;99.90;;;;;;5077888;28;19924;-72
2021/09/17 04:51:28;;;;;;;;;;;11.60;99.90;;;;;;5077377;28;19931;-72
2021/09/17 04:53:54;;;;;;;;;;;11.60;99.90;;;;;;5094293;28;19985;-72
2021/09/17 04:56:26;;;;;;;;;;;11.60;99.90;;;;;;5077491;28;19930;-72
2021/09/17 04:58:53;;;;;;;;;;;11.50;99.90;;;;;;5077559;28;19924;-72
2021/09/17 05:01:19;;;;;;;;;;;11.50;99.90;;;;;;5094400;28;20599;-72
2021/09/17 05:03:47;;;;;;;;;;;11.50;99.90;;;;;;5077797;28;20350;-72
2021/09/17 05:06:19;;;;;;;;;;;11.50;99.90;;;;;;5112566;28;19930;-73
2021/09/17 05:08:50;;;;;;;;;;;11.50;99.90;;;;;;5078637;28;20023;-72
2021/09/17 05:11:22;;;;;;;;;;;11.50;99.90;;;;;;5095191;28;20493;-72
2021/09/17 05:13:54;;;;;;;;;;;11.40;99.90;;;;;;5112239;28;19927;-72
2021/09/17 05:16:25;;;;;;;;;;;11.40;99.90;;;;;;5077285;28;19924;-73
2021/09/17 05:18:57;;;;;;;;;;;11.40;99.90;;;;;;5094074;28;19924;-72
2021/09/17 05:21:23;;;;;;;;;;;11.40;99.90;;;;;;5077612;28;19974;-72
2021/09/17 05:23:50;;;;;;;;;;;11.50;99.90;;;;;;5077233;28;19986;-72
2021/09/17 05:26:17;;;;;;;;;;;11.50;99.90;;;;;;5094074;28;19958;-73
2021/09/17 05:28:48;;;;;;;;;;;11.50;99.90;;;;;;5112503;28;20419;-72
2021/09/17 05:31:20;;;;;;;;;;;11.60;99.90;;;;;;5094103;28;19931;-72
2021/09/17 05:33:47;;;;;;;;;;;11.70;99.90;;;;;;5113254;28;19991;-72
2021/09/17 05:36:14;;;;;;;;;;;11.80;99.90;;;;;;5097366;28;20031;-72
2021/09/17 05:38:40;;;;;;;;;;;11.90;99.90;;;;;;5097355;28;19924;-72
2021/09/17 05:41:07;;;;;;;;;;;11.90;99.90;;;;;;5097751;28;20374;-72
2021/09/17 05:43:39;;;;;;;;;;;11.90;99.90;;;;;;5098344;28;19924;-72
2021/09/17 05:46:05;;;;;;;;;;;11.90;99.90;;;;;;5082316;28;19924;-73
2021/09/17 05:48:37;;;;;;;;;;;11.90;99.90;;;;;;5094270;28;19970;-72
2021/09/17 05:51:09;;;;;;;;;;;11.90;99.90;;;;;;5093222;28;19978;-72
2021/09/17 05:53:35;;;;;;;;;;;12.00;99.90;;;;;;5059623;28;19925;-73
2021/09/17 05:56:02;;;;;;;;;;;12.00;99.90;;;;;;5092376;28;19974;-73
2021/09/17 05:58:31;;;;;;;;;;;12.00;99.90;;;;;;5076336;28;20022;-73
2021/09/17 06:01:04;;;;;;;;;;;12.00;99.90;;;;;;5092280;28;19947;-73
2021/09/17 06:03:30;;;;;;;;;;;12.10;99.90;;;;;;5093335;28;19928;-73
2021/09/17 06:05:57;;;;;;;;;;;12.10;99.90;;;;;;5095977;28;20337;-73
2021/09/17 06:08:29;;;;;;;;;;;12.20;99.90;;;;;;5097266;28;20018;-73
2021/09/17 06:11:00;;;;;;;;;;;12.20;99.90;;;;;;5079974;28;20046;-73
2021/09/17 06:13:32;;;;;;;;;;;12.20;99.90;;;;;;5114370;28;19924;-73
2021/09/17 06:15:59;;;;;;;;;;;12.20;99.90;;;;;;5095245;28;19930;-73
2021/09/17 06:18:25;;;;;;;;;;;12.30;99.90;;;;;;5114254;28;20370;-73
2021/09/17 06:20:58;;;;;;;;;;;12.30;99.90;;;;;;5114216;28;19946;-73
2021/09/17 06:23:30;;;;;;;;;;;12.40;99.90;;;;;;5096722;28;19924;-72
2021/09/17 06:25:56;;;;;;;;;;;12.50;99.90;;;;;;5078685;28;20507;-73
2021/09/17 06:28:24;;;;;;;;;;;12.50;99.90;;;;;;5095842;28;20424;-72
2021/09/17 06:30:51;;;;;;;;;;;12.50;99.90;;;;;;5113760;28;19934;-73
2021/09/17 06:33:17;;;;;;;;;;;12.50;99.90;;;;;;5095752;28;20048;-72
2021/09/17 06:35:49;;;;;;;;;;;12.60;99.90;;;;;;5079175;28;19928;-73
2021/09/17 06:38:21;;;;;;;;;;;12.60;99.90;;;;;;5095613;28;19927;-73
2021/09/17 06:40:53;;;;;;;;;;;12.60;99.90;;;;;;5095291;28;19963;-73
2021/09/17 06:43:24;;;;;;;;;;;12.80;99.90;;;;;;5079238;28;19927;-72
2021/09/17 06:45:56;;;;;;;;;;;12.90;99.90;;;;;;5095186;28;19923;-73
2021/09/17 06:48:22;;;;;;;;;;;12.90;99.90;;;;;;5113696;28;20026;-72
2021/09/17 06:50:49;;;;;;;;;;;12.90;99.90;;;;;;5095212;28;19946;-73
2021/09/17 06:53:21;;;;;;;;;;;13.00;99.90;;;;;;5095166;28;19924;-73
2021/09/17 06:55:48;;;;;;;;;;;13.10;99.90;;;;;;5094671;28;19924;-73
2021/09/17 06:58:20;;;;;;;;;;;13.20;99.90;;;;;;5079380;28;20010;-73
2021/09/17 07:00:46;;;;;;;;;;;13.20;99.90;;;;;;5095195;28;19955;-73
2021/09/17 07:03:18;;;;;;;;;;;13.30;99.90;;;;;;5095294;28;20007;-73
2021/09/17 07:05:45;;;;;;;;;;;13.30;99.90;;;;;;5077453;28;19932;-73
2021/09/17 07:08:11;;;;;;;;;;;13.30;99.90;;;;;;5095349;28;20302;-73
2021/09/17 07:10:39;;;;;;;;;;;13.30;99.90;;;;;;5095159;28;20010;-72
2021/09/17 07:13:06;;;;;;;;;;;13.30;99.90;;;;;;5113279;28;20473;-73
2021/09/17 07:15:33;;;;;;;;;;;13.30;99.90;;;;;;5094423;28;20022;-71
2021/09/17 07:18:06;;;;;;;;;;;13.30;99.90;;;;;;5078786;28;20562;-73
2021/09/17 07:20:38;;;;;;;;;;;13.30;99.90;;;;;;5095689;28;19924;-73
2021/09/17 07:23:11;;;;;;;;;;;13.40;99.90;;;;;;5094815;28;19924;-73
2021/09/17 07:25:43;;;;;;;;;;;13.40;99.90;;;;;;5094244;28;19923;-73
2021/09/17 07:28:15;;;;;;;;;;;13.40;99.90;;;;;;5095620;28;20390;-73
2021/09/17 07:30:46;;;;;;;;;;;13.40;99.90;;;;;;5095130;28;19959;-73
2021/09/17 07:33:13;;;;;;;;;;;13.50;99.90;;;;;;5094477;28;20011;-73
2021/09/17 07:35:45;;;;;;;;;;;13.50;99.90;;;;;;5078065;28;19928;-73
2021/09/17 07:38:17;;;;;;;;;;;13.50;99.90;;;;;;5078169;28;19931;-73
2021/09/17 07:40:43;;;;;;;;;;;13.60;99.90;;;;;;5077425;28;19924;-73
2021/09/17 07:43:10;;;;;;;;;;;13.70;99.90;;;;;;5077578;28;19930;-72
2021/09/17 07:45:37;;;;;;;;;;;13.80;99.90;;;;;;5093763;28;20354;-73
2021/09/17 07:48:04;;;;;;;;;;;13.80;99.90;;;;;;5077517;28;20364;-73
2021/09/17 07:50:31;;;;;;;;;;;13.80;99.90;;;;;;5094069;28;19960;-73
2021/09/17 07:53:03;;;;;;;;;;;13.90;99.90;;;;;;5093972;28;19923;-73
2021/09/17 07:55:35;;;;;;;;;;;13.90;99.90;;;;;;5111740;28;19928;-72
2021/09/17 07:58:03;;;;;;;;;;;14.00;99.90;;;;;;5092549;28;19952;-73
2021/09/17 08:00:35;;;;;;;;;;;14.10;99.90;;;;;;5093504;28;19927;-73
2021/09/17 08:03:04;;;;;;;;;;;14.20;99.90;;;;;;5094398;28;19974;-73
2021/09/17 08:05:30;;;;;;;;;;;14.20;99.90;;;;;;5093690;28;19927;-73
2021/09/17 08:07:57;;;;;;;;;;;14.30;99.90;;;;;;5092881;28;19930;-73
2021/09/17 08:10:29;;;;;;;;;;;14.30;99.90;;;;;;5078148;28;19924;-73
2021/09/17 08:12:55;;;;;;;;;;;14.40;99.90;;;;;;5094168;28;19927;-73
2021/09/17 08:15:22;;;;;;;;;;;14.40;99.90;;;;;;5076424;28;20388;-71
2021/09/17 08:17:54;;;;;;;;;;;14.50;99.90;;;;;;5112399;28;20378;-73
2021/09/17 08:20:21;;;;;;;;;;;14.50;99.90;;;;;;5112288;28;20039;-74
2021/09/17 08:22:48;;;;;;;;;;;14.60;99.90;;;;;;5077114;28;20019;-73
2021/09/17 08:25:15;;;;;;;;;;;14.60;99.90;;;;;;5093577;28;19988;-73
2021/09/17 08:27:43;;;;;;;;;;;14.70;99.90;;;;;;5076860;28;21870;-72
2021/09/17 08:30:10;;;;;;;;;;;14.80;99.90;;;;;;5094146;28;19930;-73
2021/09/17 08:32:43;;;;;;;;;;;14.90;99.90;;;;;;5078189;28;19928;-73
2021/09/17 08:35:14;;;;;;;;;;;15.00;99.90;;;;;;5111597;28;20018;-73
2021/09/17 08:37:42;;;;;;;;;;;15.10;99.90;;;;;;5093955;28;19932;-73
2021/09/17 08:40:09;;;;;;;;;;;15.10;99.90;;;;;;5090210;28;19924;-73
2021/09/17 08:42:42;;;;;;;;;;;15.20;99.90;;;;;;5057112;28;19986;-73
2021/09/17 08:45:10;;;;;;;;;;;15.20;99.90;;;;;;5073298;28;19924;-73
2021/09/17 08:47:48;;;;;;;;;;;15.30;99.90;;;;;;5089711;28;19928;-73
2021/09/17 08:50:15;;;;;;;;;;;15.30;99.90;;;;;;5094186;28;20144;-73
2021/09/17 08:52:48;;;;;;;;;;;15.40;99.90;;;;;;5078327;28;19924;-73
2021/09/17 08:55:21;;;;;;;;;;;15.50;99.90;;;;;;5111675;28;19924;-73
2021/09/17 08:57:52;;;;;;;;;;;15.50;99.90;;;;;;5111833;28;19924;-72
2021/09/17 09:00:27;;;;;;;;;;;15.60;99.90;;;;;;5110887;28;19950;-72
2021/09/17 09:03:01;;;;;;;;;;;15.70;99.90;;;;;;5111722;28;19924;-73
2021/09/17 09:05:33;;;;;;;;;;;15.70;99.90;;;;;;5093785;28;19923;-72
2021/09/17 09:08:06;;;;;;;;;;;15.80;99.90;;;;;;5093530;28;20435;-73
2021/09/17 09:10:38;;;;;;;;;;;15.90;99.90;;;;;;5097022;28;20390;-73
2021/09/17 09:13:05;;;;;;;;;;;16.00;99.90;;;;;;5115973;28;20023;-73
2021/09/17 09:15:33;;;;;;;;;;;16.00;99.90;;;;;;5115256;28;19923;-74
2021/09/17 09:18:09;;;;;;;;;;;16.10;99.90;;;;;;5097874;28;19923;-73
2021/09/17 09:20:41;;;;;;;;;;;16.10;99.90;;;;;;5098136;28;19924;-74
2021/09/17 09:23:19;;;;;;;;;;;16.20;99.90;;;;;;5081312;28;20018;-73
2021/09/17 09:25:59;;;;;;;;;;;16.20;99.90;;;;;;5096857;28;20405;-73
2021/09/17 09:28:32;;;;;;;;;;;16.30;99.90;;;;;;5081703;28;19931;-73
2021/09/17 09:31:10;;;;;;;;;;;16.30;99.90;;;;;;5097120;28;19930;-73
2021/09/17 09:33:46;;;;;;;;;;;16.30;99.90;;;;;;5081754;28;19923;-74
2021/09/17 09:36:17;;;;;;;;;;;16.40;99.90;;;;;;5097384;28;19959;-74
2021/09/17 09:38:54;;;;;;;;;;;16.40;99.90;;;;;;5096175;28;20022;-74
2021/09/17 09:41:25;;;;;;;;;;;16.50;99.90;;;;;;5097346;28;19985;-74
2021/09/17 09:44:04;;;;;;;;;;;16.50;99.90;;;;;;5115074;28;19970;-73
2021/09/17 09:46:43;;;;;;;;;;;16.60;99.90;;;;;;5115789;28;19923;-72
2021/09/17 09:49:12;;;;;;;;;;;16.60;99.90;;;;;;5096798;28;20503;-73
2021/09/17 09:51:53;;;;;;;;;;;16.70;99.90;;;;;;5098169;28;19924;-72
2021/09/17 09:54:23;;;;;;;;;;;16.70;99.90;;;;;;5096270;28;19937;-73
2021/09/17 09:56:55;;;;;;;;;;;16.80;99.90;;;;;;5096439;28;19924;-74
2021/09/17 09:59:28;;;;;;;;;;;16.90;99.90;;;;;;5096549;28;19928;-73
2021/09/17 10:02:03;;;;;;;;;;;16.90;99.90;;;;;;5080589;28;20416;-73
2021/09/17 10:04:36;;;;;;;;;;;17.00;99.90;;;;;;5096403;28;19924;-73
2021/09/17 10:07:04;;;;;;;;;;;17.10;99.90;;;;;;5097053;28;20439;-73
2021/09/17 10:09:37;;;;;;;;;;;17.10;99.90;;;;;;5097826;28;19974;-73
2021/09/17 10:12:12;;;;;;;;;;;17.20;99.90;;;;;;5114951;28;20007;-73
2021/09/17 10:14:46;;;;;;;;;;;17.30;99.90;;;;;;5096317;28;19927;-73
2021/09/17 10:17:20;;;;;;;;;;;17.30;99.90;;;;;;5097999;28;20014;-74
2021/09/17 10:19:47;;;;;;;;;;;17.30;99.90;;;;;;5113989;28;20064;-74
2021/09/17 10:22:27;;;;;;;;;;;17.40;99.90;;;;;;5114378;28;20398;-73
2021/09/17 10:25:16;;;;;;;;;;;17.30;99.90;;;;;;5096001;28;20020;-74
2021/09/17 10:28:02;;;;;;;;;;;17.20;99.90;;;;;;5114848;28;20363;-73
2021/09/17 10:30:35;;;;;;;;;;;17.30;99.90;;;;;;5096481;28;20064;-73
2021/09/17 10:33:26;;;;;;;;;;;17.60;99.90;;;;;;5114672;28;20014;-73
2021/09/17 10:36:00;;;;;;;;;;;17.70;99.90;;;;;;5114109;28;19924;-73
2021/09/17 10:38:33;;;;;;;;;;;17.80;99.90;;;;;;5097153;28;20271;-73
2021/09/17 10:41:08;;;;;;;;;;;17.80;99.90;;;;;;5096131;28;19923;-73
2021/09/17 10:43:39;;;;;;;;;;;17.90;99.90;;;;;;5114434;28;20168;-72
2021/09/17 10:46:20;;;;;;;;;;;18.00;99.90;;;;;;5079603;28;20473;-73
2021/09/17 10:48:53;;;;;;;;;;;18.20;99.90;;;;;;5079736;28;19931;-73
2021/09/17 10:51:31;;;;;;;;;;;18.30;99.90;;;;;;5114466;28;20344;-73
2021/09/17 10:54:01;;;;;;;;;;;18.40;99.90;;;;;;5114434;28;19923;-74
2021/09/17 10:56:48;;;;;;;;;;;18.60;99.90;;;;;;5105313;28;19924;-73
2021/09/17 10:59:22;;;;;;;;;;;18.70;99.90;;;;;;5095578;28;19924;-73
2021/09/17 11:02:08;;;;;;;;;;;18.90;99.90;;;;;;5079836;28;19923;-73
2021/09/17 11:04:38;;;;;;;;;;;19.00;99.90;;;;;;5078352;28;19969;-73
2021/09/17 11:07:17;;;;;;;;;;;19.10;99.90;;;;;;5096727;28;20420;-73
2021/09/17 11:09:55;;;;;;;;;;;19.10;99.90;;;;;;5096835;28;20377;-73
2021/09/17 11:12:31;;;;;;;;;;;19.10;99.90;;;;;;5095421;28;20019;-72
2021/09/17 11:15:01;;;;;;;;;;;19.10;99.90;;;;;;5095081;28;20298;-73
2021/09/17 11:18:03;;;;;;;;;;;19.20;99.90;;;;;;5079497;28;20022;-73
2021/09/17 11:20:35;;;;;;;;;;;19.30;99.90;;;;;;5079406;28;20018;-73
2021/09/17 11:23:28;;;;;;;;;;;19.10;99.90;;;;;;5095688;28;20018;-73
2021/09/17 11:25:57;;;;;;;;;;;19.10;99.90;;;;;;5095141;28;20379;-74
2021/09/17 11:28:30;;;;;;;;;;;19.00;99.90;;;;;;5079557;28;20379;-73
2021/09/17 11:31:17;;;;;;;;;;;18.90;99.90;;;;;;5095103;28;20382;-73
2021/09/17 11:34:00;;;;;;;;;;;18.70;99.90;;;;;;5095737;28;19930;-72
2021/09/17 11:36:34;;;;;;;;;;;18.60;99.90;;;;;;5095255;28;19930;-73
2021/09/17 11:39:11;;;;;;;;;;;18.60;99.90;;;;;;5095135;28;19924;-72
2021/09/17 11:41:43;;;;;;;;;;;18.50;99.90;;;;;;5096000;28;19924;-72
2021/09/17 11:44:30;;;;;;;;;;;18.50;99.90;;;;;;5112964;28;19924;-73
2021/09/17 11:47:03;;;;;;;;;;;18.60;99.90;;;;;;5079174;28;19930;-73
2021/09/17 11:49:31;;;;;;;;;;;18.70;99.90;;;;;;5077963;28;20027;-73
2021/09/17 11:52:08;;;;;;;;;;;18.70;99.90;;;;;;5079113;28;20359;-73
2021/09/17 11:54:35;;;;;;;;;;;19.00;99.90;;;;;;5094600;28;19924;-73
2021/09/17 11:57:13;;;;;;;;;;;19.20;99.90;;;;;;5094625;28;19985;-72
2021/09/17 11:59:49;;;;;;;;;;;19.40;99.90;;;;;;5096355;28;19931;-73
2021/09/17 12:02:22;;;;;;;;;;;19.40;99.90;;;;;;5113002;28;20370;-73
2021/09/17 12:05:01;;;;;;;;;;;19.40;99.90;;;;;;5078124;28;19923;-73
2021/09/17 12:07:34;;;;;;;;;;;19.40;99.90;;;;;;5078665;28;19924;-73
2021/09/17 12:10:22;;;;;;;;;;;19.30;99.90;;;;;;5112856;28;19930;-73
2021/09/17 12:12:49;;;;;;;;;;;19.20;99.90;;;;;;5080998;28;20024;-73
2021/09/17 12:15:30;;;;;;;;;;;19.30;99.90;;;;;;5113204;28;20030;-73
2021/09/17 12:18:00;;;;;;;;;;;19.30;99.90;;;;;;5095121;28;19927;-73
2021/09/17 12:20:46;;;;;;;;;;;19.20;99.90;;;;;;5112624;28;19928;-73
2021/09/17 12:23:19;;;;;;;;;;;19.10;99.90;;;;;;5094606;28;19955;-73
2021/09/17 12:26:05;;;;;;;;;;;19.00;99.90;;;;;;5112251;28;20390;-73
2021/09/17 12:28:40;;;;;;;;;;;18.90;99.90;;;;;;5094633;28;19930;-73
2021/09/17 12:31:10;;;;;;;;;;;19.00;99.90;;;;;;5112015;28;20018;-73
2021/09/17 12:33:38;;;;;;;;;;;19.00;99.90;;;;;;5073811;28;20365;-73
2021/09/17 12:36:11;;;;;;;;;;;19.00;99.90;;;;;;5090470;28;19924;-72
2021/09/17 12:38:44;;;;;;;;;;;19.10;99.90;;;;;;5068133;28;19924;-72
2021/09/17 12:41:13;;;;;;;;;;;19.10;99.90;;;;;;5112774;28;19924;-72
2021/09/17 12:43:41;;;;;;;;;;;19.30;99.90;;;;;;5093740;28;19985;-72
2021/09/17 12:46:18;;;;;;;;;;;19.40;99.90;;;;;;5076292;28;19989;-72
2021/09/17 12:48:47;;;;;;;;;;;19.40;99.90;;;;;;5094369;28;19984;-72
2021/09/17 12:51:16;;;;;;;;;;;19.40;99.90;;;;;;5112605;28;19931;-72
2021/09/17 12:53:47;;;;;;;;;;;19.40;99.90;;;;;;5094498;28;19973;-72
2021/09/17 12:56:19;;;;;;;;;;;19.30;99.90;;;;;;5092085;28;20428;-72
2021/09/17 12:59:21;;;;;;;;;;;19.20;99.90;;;;;;5078429;28;19969;-72
2021/09/17 13:01:57;;;;;;;;;;;19.10;99.90;;;;;;5093895;28;19923;-72
2021/09/17 13:04:30;;;;;;;;;;;19.00;99.90;;;;;;5077540;28;19985;-72
2021/09/17 13:06:58;;;;;;;;;;;19.00;99.90;;;;;;5094021;28;20460;-72
2021/09/17 13:09:25;;;;;;;;;;;19.10;99.90;;;;;;5076891;28;20360;-72
2021/09/17 13:11:57;;;;;;;;;;;19.20;99.90;;;;;;5095022;28;20283;-72
2021/09/17 13:14:25;;;;;;;;;;;19.30;99.90;;;;;;5076742;28;19924;-72
2021/09/17 13:16:56;;;;;;;;;;;19.40;99.90;;;;;;5093923;28;19928;-72
2021/09/17 13:19:24;;;;;;;;;;;19.50;99.90;;;;;;5111970;28;19977;-72
2021/09/17 13:21:54;;;;;;;;;;;19.50;99.90;;;;;;5077561;28;19930;-72
2021/09/17 13:24:26;;;;;;;;;;;19.50;99.90;;;;;;5094334;28;19930;-72
2021/09/17 13:26:58;;;;;;;;;;;19.60;99.90;;;;;;5112543;28;19950;-72
2021/09/17 13:29:24;;;;;;;;;;;19.70;99.90;;;;;;5073709;28;20009;-72
2021/09/17 13:31:51;;;;;;;;;;;19.70;99.90;;;;;;5092054;28;19924;-72
2021/09/17 13:34:19;;;;;;;;;;;19.90;99.90;;;;;;5111067;28;19928;-72
2021/09/17 13:36:52;;;;;;;;;;;19.70;99.90;;;;;;5112129;28;19923;-72
2021/09/17 13:39:19;;;;;;;;;;;19.70;99.90;;;;;;5077109;28;20121;-72
2021/09/17 13:41:53;;;;;;;;;;;19.60;99.90;;;;;;5077858;28;19931;-72
2021/09/17 13:44:28;;;;;;;;;;;19.60;99.90;;;;;;5094620;28;19928;-72
2021/09/17 13:46:59;;;;;;;;;;;19.50;99.90;;;;;;5093838;28;19931;-72
2021/09/17 13:49:28;;;;;;;;;;;19.50;99.90;;;;;;5111895;28;19924;-73
2021/09/17 13:52:00;;;;;;;;;;;19.60;99.90;;;;;;5093735;28;20343;-73
2021/09/17 13:54:28;;;;;;;;;;;19.70;99.90;;;;;;5111621;28;20416;-73
2021/09/17 13:56:56;;;;;;;;;;;19.80;99.90;;;;;;5097648;28;19977;-73
2021/09/17 13:59:27;;;;;;;;;;;19.90;99.90;;;;;;5081013;28;19934;-73
2021/09/17 14:01:54;;;;;;;;;;;20.00;99.90;;;;;;5097666;28;19924;-72
2021/09/17 14:04:29;;;;;;;;;;;20.10;99.90;;;;;;5081404;28;19924;-72
2021/09/17 14:07:04;;;;;;;;;;;20.00;99.90;;;;;;5080874;28;19959;-72
2021/09/17 14:09:31;;;;;;;;;;;20.00;99.90;;;;;;5095219;28;20026;-72
2021/09/17 14:12:03;;;;;;;;;;;20.10;99.90;;;;;;5096292;28;20386;-72
2021/09/17 14:14:35;;;;;;;;;;;20.00;99.90;;;;;;5097603;28;19924;-71
2021/09/17 14:17:06;;;;;;;;;;;20.00;99.90;;;;;;5082273;28;19924;-72
2021/09/17 14:19:33;;;;;;;;;;;19.90;99.90;;;;;;5081034;28;19962;-72
2021/09/17 14:22:02;;;;;;;;;;;19.90;99.90;;;;;;5097940;28;19958;-72
2021/09/17 14:24:37;;;;;;;;;;;20.00;99.90;;;;;;5098713;28;20386;-72
2021/09/17 14:27:08;;;;;;;;;;;20.20;99.90;;;;;;5097382;28;20030;-72
2021/09/17 14:29:40;;;;;;;;;;;20.40;99.90;;;;;;5098579;28;20305;-71
2021/09/17 14:32:13;;;;;;;;;;;20.70;99.90;;;;;;5095617;28;19997;-72
2021/09/17 14:34:47;;;;;;;;;;;20.90;99.90;;;;;;5096569;28;20008;-72
2021/09/17 14:37:19;;;;;;;;;;;21.20;99.90;;;;;;5096549;28;19923;-72
2021/09/17 14:39:46;;;;;;;;;;;21.50;99.90;;;;;;5096992;28;20416;-72